Time;durP1;ratioP1;P1;durP2;ratioP2;P2;SDS_P1;SDS_P2;PMS_P1;PMS_P2;Temp;Humidity;BMP_temperature;BMP_pressure;BME280_temperature;BME280_humidity;BME280_pressure;Samples;Min_cycle;Max_cycle;Signal;HPM_P1;HPM_P2
2022/03/15 00:01:32;;;;;;;14.80;9.00;;;9.50;50.10;;;;;;5118154;27;20481;-88
2022/03/15 00:03:59;;;;;;;13.30;8.20;;;9.60;50.20;;;;;;5114774;27;20526;-90
2022/03/15 00:06:26;;;;;;;11.73;8.93;;;9.50;50.20;;;;;;5103400;27;20446;-89
2022/03/15 00:08:53;;;;;;;14.77;7.90;;;9.40;50.30;;;;;;5119585;27;20457;-88
2022/03/15 00:11:21;;;;;;;11.23;8.40;;;9.50;50.20;;;;;;5133022;27;20457;-89
2022/03/15 00:13:50;;;;;;;11.80;7.30;;;9.40;50.20;;;;;;5116881;27;20473;-88
2022/03/15 00:16:17;;;;;;;11.93;7.47;;;9.40;50.10;;;;;;5115380;27;20457;-88
2022/03/15 00:18:44;;;;;;;9.30;7.80;;;9.40;50.10;;;;;;5106411;27;20453;-88
2022/03/15 00:21:12;;;;;;;15.60;7.63;;;9.40;50.20;;;;;;5125510;27;20440;-89
2022/03/15 00:23:39;;;;;;;12.23;6.47;;;9.40;50.20;;;;;;5106888;27;20473;-90
2022/03/15 00:26:07;;;;;;;13.73;7.50;;;9.40;50.20;;;;;;5118254;27;20467;-88
2022/03/15 00:28:35;;;;;;;13.60;7.77;;;9.40;50.30;;;;;;5099981;27;20442;-88
2022/03/15 00:31:04;;;;;;;11.83;7.20;;;9.30;50.40;;;;;;5104246;27;20559;-88
2022/03/15 00:33:31;;;;;;;17.90;7.00;;;9.30;50.40;;;;;;5090331;27;20454;-87
2022/03/15 00:35:59;;;;;;;10.93;7.17;;;9.30;50.30;;;;;;5116336;27;20437;-88
2022/03/15 00:38:26;;;;;;;13.93;6.73;;;9.30;50.30;;;;;;5115134;27;20426;-89
2022/03/15 00:40:53;;;;;;;12.50;6.20;;;9.30;50.20;;;;;;5089444;27;20548;-87
2022/03/15 00:43:22;;;;;;;10.90;6.47;;;9.30;50.30;;;;;;5103159;27;20888;-89
2022/03/15 00:45:50;;;;;;;9.90;5.87;;;9.20;50.50;;;;;;5132140;27;20473;-89
2022/03/15 00:48:19;;;;;;;12.40;6.73;;;9.10;50.50;;;;;;5089179;27;20441;-89
2022/03/15 00:50:46;;;;;;;11.50;7.20;;;9.10;50.70;;;;;;5100682;27;20437;-88
2022/03/15 00:53:13;;;;;;;9.40;6.50;;;9.10;50.70;;;;;;5101877;27;20462;-89
2022/03/15 00:55:43;;;;;;;10.03;7.07;;;9.10;50.80;;;;;;5122540;27;20441;-88
2022/03/15 00:58:11;;;;;;;13.10;7.60;;;9.10;50.60;;;;;;5116210;27;20438;-88
2022/03/15 01:00:39;;;;;;;10.43;5.80;;;9.10;50.60;;;;;;5099916;27;20436;-88
2022/03/15 01:03:08;;;;;;;9.10;7.03;;;9.10;50.50;;;;;;5089581;27;20499;-88
2022/03/15 01:05:37;;;;;;;10.10;7.03;;;9.10;50.50;;;;;;5131730;27;20484;-88
2022/03/15 01:08:04;;;;;;;11.20;6.87;;;9.10;50.90;;;;;;5121177;27;20454;-88
2022/03/15 01:10:31;;;;;;;12.80;7.00;;;9.10;50.90;;;;;;5098512;27;20445;-87
2022/03/15 01:13:00;;;;;;;10.97;6.87;;;9.10;50.80;;;;;;5082856;27;20453;-89
2022/03/15 01:15:41;;;;;;;12.93;6.97;;;9.10;50.70;;;;;;5099371;27;20433;-86
2022/03/15 01:18:08;;;;;;;13.00;6.83;;;9.10;50.70;;;;;;5134040;27;20541;-88
2022/03/15 01:20:37;;;;;;;10.47;6.00;;;8.90;51.90;;;;;;5136014;27;20437;-89
2022/03/15 01:23:04;;;;;;;11.40;7.10;;;8.90;52.40;;;;;;5097312;27;21501;-89
2022/03/15 01:25:31;;;;;;;10.57;7.60;;;8.90;52.20;;;;;;5107732;27;20473;-86
2022/03/15 01:27:58;;;;;;;10.90;7.30;;;8.90;51.70;;;;;;5122923;27;20433;-88
2022/03/15 01:30:25;;;;;;;10.37;6.77;;;9.00;51.60;;;;;;5118569;27;20440;-89
2022/03/15 01:32:53;;;;;;;9.03;5.83;;;8.90;51.60;;;;;;5088064;27;21046;-88
2022/03/15 01:35:20;;;;;;;10.50;6.63;;;9.00;51.50;;;;;;5089283;27;20457;-89
2022/03/15 01:37:48;;;;;;;11.10;7.07;;;9.00;51.50;;;;;;5113833;27;20438;-87
2022/03/15 01:40:16;;;;;;;8.53;6.20;;;9.00;51.60;;;;;;5104284;27;21008;-88
2022/03/15 01:42:44;;;;;;;10.43;6.20;;;8.90;51.70;;;;;;5095391;27;20526;-89
2022/03/15 01:45:11;;;;;;;8.63;6.23;;;8.90;51.60;;;;;;5100646;27;20465;-89
2022/03/15 01:47:39;;;;;;;12.17;6.50;;;8.90;51.70;;;;;;5118074;27;20448;-89
2022/03/15 01:50:07;;;;;;;12.57;7.67;;;8.70;52.40;;;;;;5107028;27;20462;-88
2022/03/15 01:52:34;;;;;;;11.20;6.63;;;8.70;52.90;;;;;;5102382;27;20469;-87
2022/03/15 01:55:04;;;;;;;10.47;6.80;;;8.60;53.00;;;;;;5118818;27;20446;-88
2022/03/15 01:57:31;;;;;;;11.30;7.83;;;8.70;52.70;;;;;;5120344;27;20429;-86
2022/03/15 01:59:58;;;;;;;10.97;7.60;;;8.70;52.30;;;;;;5104459;27;20445;-88
2022/03/15 02:02:25;;;;;;;12.10;6.90;;;8.70;52.20;;;;;;5107076;27;20553;-88
2022/03/15 02:04:52;;;;;;;9.43;5.40;;;8.70;52.30;;;;;;5092884;27;21069;-89
2022/03/15 02:07:19;;;;;;;13.03;6.70;;;8.70;52.20;;;;;;5102796;27;21491;-89
2022/03/15 02:09:49;;;;;;;11.43;7.50;;;8.70;52.00;;;;;;5085380;27;20438;-88
2022/03/15 02:12:17;;;;;;;14.23;7.10;;;8.80;52.10;;;;;;5093968;27;20967;-88
2022/03/15 02:14:44;;;;;;;13.70;8.03;;;8.10;54.20;;;;;;5101327;27;20899;-88
2022/03/15 02:17:11;;;;;;;13.03;6.60;;;8.10;54.60;;;;;;5120464;27;20428;-88
2022/03/15 02:19:38;;;;;;;14.63;7.97;;;8.20;54.10;;;;;;5124151;27;20453;-88
2022/03/15 02:22:07;;;;;;;11.60;7.90;;;8.20;54.10;;;;;;5119679;27;20473;-88
2022/03/15 02:24:34;;;;;;;12.17;7.07;;;8.30;54.10;;;;;;5102098;27;20738;-89
2022/03/15 02:27:03;;;;;;;11.60;7.50;;;8.40;53.20;;;;;;5101746;27;20449;-88
2022/03/15 02:29:30;;;;;;;13.70;8.40;;;8.00;54.00;;;;;;5118191;27;20453;-88
2022/03/15 02:31:57;;;;;;;17.93;8.73;;;7.90;54.80;;;;;;5120425;27;20472;-88
2022/03/15 02:34:25;;;;;;;14.37;6.70;;;8.00;54.60;;;;;;5091225;27;20446;-88
2022/03/15 02:36:52;;;;;;;13.90;6.37;;;8.10;54.20;;;;;;5091523;27;20940;-87
2022/03/15 02:39:21;;;;;;;12.90;6.67;;;8.30;53.70;;;;;;5124065;27;20543;-88
2022/03/15 02:41:48;;;;;;;13.87;7.83;;;8.40;53.30;;;;;;5102082;27;20442;-89
2022/03/15 02:44:15;;;;;;;10.47;6.60;;;8.40;52.70;;;;;;5117432;27;20473;-88
2022/03/15 02:46:42;;;;;;;9.30;6.53;;;8.50;52.80;;;;;;5120359;27;20468;-88
2022/03/15 02:49:10;;;;;;;12.77;5.40;;;8.50;52.80;;;;;;5102872;27;20432;-88
2022/03/15 02:51:37;;;;;;;12.03;7.43;;;8.60;52.60;;;;;;5103895;27;20449;-88
2022/03/15 02:54:08;;;;;;;11.47;6.20;;;8.60;52.50;;;;;;5121050;27;20928;-89
2022/03/15 02:56:42;;;;;;;13.93;6.77;;;8.60;52.40;;;;;;5120525;27;20533;-88
2022/03/15 02:59:09;;;;;;;10.90;7.30;;;8.20;53.00;;;;;;5106436;27;20444;-89
2022/03/15 03:01:36;;;;;;;11.73;6.43;;;8.10;53.50;;;;;;5093408;27;20659;-88
2022/03/15 03:04:03;;;;;;;9.63;6.40;;;8.30;53.10;;;;;;5119016;27;20472;-88
2022/03/15 03:06:30;;;;;;;10.97;6.83;;;8.30;53.50;;;;;;5104710;27;20505;-89
2022/03/15 03:08:57;;;;;;;17.23;7.57;;;8.40;53.50;;;;;;5135599;27;20452;-88
2022/03/15 03:11:24;;;;;;;13.60;7.50;;;8.30;53.80;;;;;;5119956;27;20804;-89
2022/03/15 03:13:58;;;;;;;11.23;7.63;;;8.40;53.20;;;;;;5117966;27;21106;-88
2022/03/15 03:16:26;;;;;;;11.23;7.50;;;8.40;53.30;;;;;;5119348;27;20498;-90
2022/03/15 03:18:56;;;;;;;10.07;6.67;;;8.40;53.70;;;;;;5117467;27;20905;-88
2022/03/15 03:21:25;;;;;;;10.47;5.97;;;8.30;53.90;;;;;;5118839;27;20445;-88
2022/03/15 03:23:53;;;;;;;9.83;6.17;;;8.40;53.60;;;;;;5090822;27;20465;-88
2022/03/15 03:26:22;;;;;;;11.50;7.33;;;8.50;53.00;;;;;;5092115;27;20469;-89
2022/03/15 03:28:51;;;;;;;14.47;6.77;;;8.40;53.20;;;;;;5119096;27;20452;-87
2022/03/15 03:31:20;;;;;;;9.80;6.70;;;8.40;53.50;;;;;;5110715;27;20462;-88
2022/03/15 03:33:48;;;;;;;13.07;7.20;;;8.40;53.50;;;;;;5126824;27;20476;-89
2022/03/15 03:36:15;;;;;;;13.73;7.43;;;8.40;53.40;;;;;;5121731;27;20433;-89
2022/03/15 03:38:42;;;;;;;11.47;8.33;;;8.50;53.60;;;;;;5120092;27;20685;-89
2022/03/15 03:41:09;;;;;;;10.83;7.00;;;8.50;53.30;;;;;;5136778;27;20798;-88
2022/03/15 03:43:36;;;;;;;10.17;7.47;;;8.40;53.70;;;;;;5122978;27;20466;-89
2022/03/15 03:46:04;;;;;;;12.77;6.57;;;8.40;53.70;;;;;;5102686;27;20470;-88
2022/03/15 03:48:32;;;;;;;10.10;6.63;;;8.40;54.20;;;;;;5102510;27;20523;-86
2022/03/15 03:51:00;;;;;;;11.07;6.50;;;8.40;54.10;;;;;;5119577;27;20452;-88
2022/03/15 03:53:27;;;;;;;8.97;5.10;;;8.40;54.00;;;;;;5125665;27;20472;-88
2022/03/15 03:55:54;;;;;;;9.77;5.67;;;8.50;53.50;;;;;;5120093;27;20453;-89
2022/03/15 03:58:22;;;;;;;7.10;5.23;;;8.50;53.30;;;;;;5109008;27;20434;-88
2022/03/15 04:00:48;;;;;;;8.40;6.30;;;8.40;53.40;;;;;;5121171;27;20871;-90
2022/03/15 04:03:17;;;;;;;8.67;5.57;;;8.40;53.40;;;;;;5105590;27;20477;-88
2022/03/15 04:05:45;;;;;;;12.03;6.17;;;8.10;54.70;;;;;;5124764;27;20469;-88
2022/03/15 04:08:14;;;;;;;12.07;5.90;;;8.00;55.00;;;;;;5104058;27;20437;-88
2022/03/15 04:10:41;;;;;;;16.93;6.00;;;8.20;54.60;;;;;;5085698;27;20469;-88
2022/03/15 04:13:08;;;;;;;7.80;5.43;;;8.30;54.00;;;;;;5114434;27;20474;-88
2022/03/15 04:15:35;;;;;;;8.30;6.13;;;8.20;54.50;;;;;;5090280;27;20452;-88
2022/03/15 04:18:03;;;;;;;12.17;5.63;;;8.20;54.50;;;;;;5101086;27;20450;-87
2022/03/15 04:20:33;;;;;;;8.43;5.50;;;8.20;54.30;;;;;;5119070;27;20473;-88
2022/03/15 04:23:00;;;;;;;7.93;5.47;;;8.30;53.80;;;;;;5134982;27;20525;-89
2022/03/15 04:25:27;;;;;;;9.10;6.60;;;8.30;53.20;;;;;;5116805;27;20467;-88
2022/03/15 04:27:56;;;;;;;33.53;12.60;;;8.30;53.20;;;;;;5132776;27;20445;-89
2022/03/15 04:30:24;;;;;;;27.90;11.70;;;8.30;53.10;;;;;;5116010;27;20454;-89
2022/03/15 04:32:51;;;;;;;26.07;11.10;;;8.30;53.10;;;;;;5100829;27;20841;-89
2022/03/15 04:35:18;;;;;;;19.10;13.50;;;8.20;53.20;;;;;;5106299;27;20453;-88
2022/03/15 04:37:47;;;;;;;21.33;11.70;;;8.20;53.70;;;;;;5117728;27;20437;-88
2022/03/15 04:40:17;;;;;;;20.90;10.90;;;8.10;54.30;;;;;;5094429;27;20524;-88
2022/03/15 04:42:45;;;;;;;26.13;8.13;;;7.90;54.70;;;;;;5099646;27;21004;-88
2022/03/15 04:45:12;;;;;;;10.23;8.00;;;7.40;55.90;;;;;;5099183;27;21032;-89
2022/03/15 04:47:40;;;;;;;13.93;7.10;;;7.50;56.00;;;;;;5117877;27;20453;-88
2022/03/15 04:50:09;;;;;;;12.23;7.10;;;7.70;55.30;;;;;;5105939;27;20783;-89
2022/03/15 04:52:36;;;;;;;9.27;7.27;;;7.70;54.50;;;;;;5132336;27;20469;-88
2022/03/15 04:55:06;;;;;;;12.00;7.47;;;7.50;55.40;;;;;;5092012;27;20438;-88
2022/03/15 04:57:33;;;;;;;11.30;7.60;;;7.40;56.10;;;;;;5099133;27;20448;-88
2022/03/15 05:00:00;;;;;;;11.80;8.20;;;7.50;55.70;;;;;;5103113;27;20449;-88
2022/03/15 05:02:28;;;;;;;15.90;7.70;;;7.70;55.10;;;;;;5103786;27;20535;-88
2022/03/15 05:04:55;;;;;;;10.60;7.57;;;7.30;56.30;;;;;;5084727;27;20782;-88
2022/03/15 05:07:22;;;;;;;14.83;8.03;;;7.60;56.10;;;;;;5102727;27;20480;-89
2022/03/15 05:12:32;;;;;;;21.50;8.70;;;7.70;55.70;;;;;;5094798;27;20466;-88
2022/03/15 05:14:59;;;;;;;11.87;7.67;;;7.90;55.30;;;;;;5120257;27;20442;-90
2022/03/15 05:17:26;;;;;;;8.33;7.43;;;8.00;54.90;;;;;;5120951;27;20525;-88
2022/03/15 05:19:53;;;;;;;10.70;7.50;;;8.00;54.90;;;;;;5104151;27;21407;-88
2022/03/15 05:22:22;;;;;;;11.43;7.70;;;8.10;54.70;;;;;;5120866;27;20462;-90
2022/03/15 05:24:49;;;;;;;11.00;7.07;;;8.20;54.40;;;;;;5117765;27;20510;-88
2022/03/15 05:27:17;;;;;;;16.10;8.83;;;8.20;53.90;;;;;;5111706;27;20457;-87
2022/03/15 05:29:45;;;;;;;17.20;9.93;;;8.20;54.30;;;;;;5096314;27;20464;-88
2022/03/15 05:32:12;;;;;;;19.17;13.80;;;8.10;54.50;;;;;;5137115;27;20472;-88
2022/03/15 05:34:39;;;;;;;15.20;11.43;;;8.10;54.40;;;;;;5106291;27;20460;-88
2022/03/15 05:37:07;;;;;;;15.30;9.77;;;8.20;54.30;;;;;;5141243;27;20445;-88
2022/03/15 05:39:34;;;;;;;11.47;8.40;;;8.20;54.10;;;;;;5106316;27;20433;-89
2022/03/15 05:42:02;;;;;;;15.87;10.47;;;8.10;54.40;;;;;;5118102;27;20465;-88
2022/03/15 05:44:29;;;;;;;16.47;8.87;;;8.00;55.00;;;;;;5110509;27;20441;-89
2022/03/15 05:46:57;;;;;;;16.47;8.30;;;8.00;55.10;;;;;;5094342;27;20470;-88
2022/03/15 05:49:24;;;;;;;11.90;7.63;;;8.20;54.80;;;;;;5118088;27;20438;-90
2022/03/15 05:51:51;;;;;;;10.60;7.47;;;8.20;54.40;;;;;;5110161;27;20545;-89
2022/03/15 05:54:18;;;;;;;11.17;7.73;;;8.20;54.30;;;;;;5106450;27;20436;-88
2022/03/15 05:56:45;;;;;;;17.90;8.37;;;8.30;54.10;;;;;;5099501;27;20556;-88
2022/03/15 05:59:13;;;;;;;12.27;9.07;;;8.20;54.10;;;;;;5139858;27;20509;-88
2022/03/15 06:01:40;;;;;;;20.80;11.53;;;8.00;55.00;;;;;;5120490;27;20456;-90
2022/03/15 06:04:10;;;;;;;11.37;8.00;;;7.90;55.20;;;;;;5106158;27;20551;-90
2022/03/15 06:06:37;;;;;;;8.03;7.03;;;8.00;55.20;;;;;;5105935;27;20549;-90
2022/03/15 06:09:04;;;;;;;11.97;6.83;;;8.10;54.70;;;;;;5092355;27;20433;-90
2022/03/15 06:11:35;;;;;;;14.73;10.50;;;8.10;54.80;;;;;;5109312;27;20469;-88
2022/03/15 06:14:02;;;;;;;18.70;9.57;;;8.00;55.60;;;;;;5107082;27;20522;-91
2022/03/15 06:16:29;;;;;;;14.00;8.77;;;8.00;55.80;;;;;;5122350;27;20460;-88
2022/03/15 06:18:56;;;;;;;11.67;8.90;;;8.00;55.80;;;;;;5113479;27;20452;-90
2022/03/15 06:21:25;;;;;;;13.03;7.73;;;8.20;55.50;;;;;;5110602;27;20446;-91
2022/03/15 06:23:52;;;;;;;11.50;7.33;;;8.30;55.00;;;;;;5117473;27;20476;-89
2022/03/15 06:26:20;;;;;;;14.70;9.10;;;8.30;54.70;;;;;;5123004;27;20470;-89
2022/03/15 06:28:47;;;;;;;15.47;8.70;;;8.40;54.90;;;;;;5118214;27;20623;-90
2022/03/15 06:31:15;;;;;;;11.50;7.07;;;8.30;54.80;;;;;;5120192;27;20482;-89
2022/03/15 06:33:42;;;;;;;14.50;9.00;;;8.10;55.50;;;;;;5106049;27;20521;-90
2022/03/15 06:36:11;;;;;;;10.80;8.67;;;8.20;55.80;;;;;;5121466;27;20453;-89
2022/03/15 06:38:41;;;;;;;15.63;9.80;;;8.30;55.60;;;;;;5115455;27;20445;-89
2022/03/15 06:41:09;;;;;;;16.40;8.37;;;8.40;55.30;;;;;;5136301;27;20702;-92
2022/03/15 06:43:36;;;;;;;13.90;9.70;;;8.20;55.50;;;;;;5120536;27;20492;-90
2022/03/15 06:46:03;;;;;;;21.83;11.90;;;8.10;55.70;;;;;;5111886;27;20983;-89
2022/03/15 06:48:30;;;;;;;18.90;11.70;;;8.30;55.60;;;;;;5106904;27;20445;-91
2022/03/15 06:50:57;;;;;;;29.20;16.97;;;8.50;55.40;;;;;;5090351;27;20445;-91
2022/03/15 06:53:24;;;;;;;24.43;16.00;;;8.40;55.20;;;;;;5108638;27;20818;-89
2022/03/15 06:55:52;;;;;;;17.70;10.67;;;8.40;55.40;;;;;;5100425;27;21750;-90
2022/03/15 06:58:19;;;;;;;18.97;11.07;;;8.50;56.10;;;;;;5089179;27;20442;-91
2022/03/15 07:00:47;;;;;;;19.20;12.13;;;8.60;55.00;;;;;;5100224;27;20462;-89
2022/03/15 07:03:14;;;;;;;16.37;10.70;;;8.70;55.10;;;;;;5092214;27;20457;-91
2022/03/15 07:05:41;;;;;;;19.20;10.43;;;8.80;55.10;;;;;;5086498;27;20498;-91
2022/03/15 07:08:10;;;;;;;17.00;9.00;;;8.80;54.80;;;;;;5111281;27;20927;-89
2022/03/15 07:10:37;;;;;;;14.60;11.17;;;8.70;55.10;;;;;;5094837;27;20445;-90
2022/03/15 07:13:05;;;;;;;15.80;9.60;;;8.60;55.40;;;;;;5121823;27;20465;-90
2022/03/15 07:15:32;;;;;;;17.00;9.00;;;8.60;55.30;;;;;;5108891;27;20766;-92
2022/03/15 07:17:59;;;;;;;18.87;11.97;;;8.60;55.70;;;;;;5122658;27;20536;-92
2022/03/15 07:20:27;;;;;;;13.03;9.53;;;8.50;55.80;;;;;;5104693;27;20534;-91
2022/03/15 07:22:54;;;;;;;14.70;9.03;;;8.50;56.80;;;;;;5094930;27;21009;-90
2022/03/15 07:25:22;;;;;;;14.20;8.30;;;8.50;56.30;;;;;;5120963;27;20441;-91
2022/03/15 07:27:50;;;;;;;14.00;8.83;;;8.60;56.00;;;;;;5106244;27;20500;-90
2022/03/15 07:30:18;;;;;;;16.40;8.60;;;8.60;56.00;;;;;;5139324;27;20460;-90
2022/03/15 07:32:45;;;;;;;14.70;9.20;;;8.70;56.10;;;;;;5118286;27;20500;-88
2022/03/15 07:35:12;;;;;;;13.40;9.40;;;8.60;56.10;;;;;;5107930;27;20461;-90
2022/03/15 07:37:49;;;;;;;14.97;9.30;;;8.70;56.40;;;;;;5103013;27;20444;-91
2022/03/15 07:40:15;;;;;;;16.57;8.57;;;8.80;56.10;;;;;;5106350;27;20441;-94
2022/03/15 07:42:43;;;;;;;22.97;13.00;;;8.80;56.20;;;;;;5087145;27;20491;-90
2022/03/15 07:45:11;;;;;;;16.57;10.70;;;9.00;55.80;;;;;;5120113;27;20448;-89
2022/03/15 07:47:39;;;;;;;17.17;10.70;;;9.10;55.20;;;;;;5139333;27;20474;-90
2022/03/15 07:50:07;;;;;;;21.10;11.10;;;8.90;55.60;;;;;;5099472;27;20445;-91
2022/03/15 07:52:34;;;;;;;13.87;10.17;;;8.90;55.70;;;;;;5092633;27;20473;-90
2022/03/15 07:55:01;;;;;;;15.07;9.67;;;8.80;56.20;;;;;;5091650;27;20934;-91
2022/03/15 07:57:28;;;;;;;16.73;10.27;;;8.70;56.30;;;;;;5099077;27;20433;-89
2022/03/15 07:59:55;;;;;;;20.17;10.60;;;8.90;56.30;;;;;;5092685;27;20437;-88
2022/03/15 08:02:22;;;;;;;20.03;11.60;;;8.90;56.10;;;;;;5118164;27;20474;-89
2022/03/15 08:04:50;;;;;;;15.87;11.83;;;8.90;56.50;;;;;;5104887;27;20792;-88
2022/03/15 08:07:17;;;;;;;18.03;10.57;;;9.10;56.10;;;;;;5102511;27;20509;-90
2022/03/15 08:09:44;;;;;;;17.93;10.17;;;9.20;55.80;;;;;;5119470;27;20892;-89
2022/03/15 08:12:11;;;;;;;18.80;11.40;;;9.40;55.60;;;;;;5106855;27;20549;-89
2022/03/15 08:14:38;;;;;;;16.87;10.53;;;9.40;55.50;;;;;;5102459;27;20425;-89
2022/03/15 08:17:05;;;;;;;15.80;10.47;;;9.60;55.30;;;;;;5106359;27;20449;-91
2022/03/15 08:19:32;;;;;;;22.40;10.83;;;9.70;55.60;;;;;;5119766;27;20445;-89
2022/03/15 08:22:02;;;;;;;15.63;9.53;;;9.50;55.10;;;;;;5116609;27;20441;-89
2022/03/15 08:24:29;;;;;;;25.37;11.63;;;9.30;55.60;;;;;;5126241;27;20480;-89
2022/03/15 08:26:56;;;;;;;18.50;11.27;;;9.30;55.90;;;;;;5117973;27;20538;-90
2022/03/15 08:29:23;;;;;;;21.67;12.80;;;9.60;55.80;;;;;;5089960;27;21186;-90
2022/03/15 08:31:50;;;;;;;17.37;11.00;;;9.70;55.20;;;;;;5102119;27;20442;-90
2022/03/15 08:34:18;;;;;;;19.23;11.37;;;9.90;55.00;;;;;;5104015;27;20474;-90
2022/03/15 08:36:45;;;;;;;18.20;10.00;;;10.10;53.90;;;;;;5116670;27;20452;-88
2022/03/15 08:39:15;;;;;;;14.53;9.13;;;10.30;53.80;;;;;;5120071;27;21036;-90
2022/03/15 08:41:45;;;;;;;14.40;10.43;;;10.30;53.60;;;;;;5117115;27;20472;-90
2022/03/15 08:44:12;;;;;;;15.23;9.70;;;10.20;54.10;;;;;;5133295;27;20461;-88
2022/03/15 08:46:39;;;;;;;15.40;9.17;;;10.20;54.10;;;;;;5115506;27;20521;-88
2022/03/15 08:49:10;;;;;;;15.63;9.90;;;10.10;54.60;;;;;;5130757;27;20456;-88
2022/03/15 08:51:37;;;;;;;12.40;9.53;;;10.00;54.90;;;;;;5117672;27;20458;-87
2022/03/15 08:54:04;;;;;;;16.57;9.50;;;10.00;55.10;;;;;;5115445;27;20465;-89
2022/03/15 08:56:33;;;;;;;15.47;9.80;;;10.00;54.90;;;;;;5113464;27;20449;-90
2022/03/15 08:59:00;;;;;;;13.50;10.03;;;10.10;54.80;;;;;;5087196;27;20438;-89
2022/03/15 09:01:27;;;;;;;12.37;8.40;;;10.20;54.80;;;;;;5108903;27;20458;-91
2022/03/15 09:03:54;;;;;;;17.13;11.00;;;10.30;54.80;;;;;;5120195;27;20460;-92
2022/03/15 09:06:21;;;;;;;13.80;9.07;;;10.50;54.40;;;;;;5086344;27;20440;-91
2022/03/15 09:08:48;;;;;;;20.50;11.50;;;10.60;54.30;;;;;;5098759;27;20480;-91
2022/03/15 09:11:15;;;;;;;14.00;8.90;;;10.70;54.60;;;;;;5100822;27;20964;-91
2022/03/15 09:13:43;;;;;;;15.07;11.40;;;10.70;54.30;;;;;;5106468;27;20467;-93
2022/03/15 09:16:12;;;;;;;12.50;8.40;;;10.50;55.00;;;;;;5102517;27;20449;-90
2022/03/15 09:18:39;;;;;;;14.57;9.80;;;10.40;54.70;;;;;;5102011;27;20441;-89
2022/03/15 09:21:07;;;;;;;12.37;9.00;;;10.40;55.00;;;;;;5116712;27;20429;-89
2022/03/15 09:23:34;;;;;;;15.70;8.60;;;10.50;55.10;;;;;;5122494;27;20553;-89
2022/03/15 09:26:01;;;;;;;15.10;9.90;;;10.70;54.90;;;;;;5103740;27;20495;-89
2022/03/15 09:28:28;;;;;;;14.73;9.20;;;10.80;54.40;;;;;;5118142;27;20480;-89
2022/03/15 09:30:56;;;;;;;19.10;8.90;;;10.90;54.40;;;;;;5105535;27;20456;-89
2022/03/15 09:33:24;;;;;;;11.87;9.87;;;11.10;53.90;;;;;;5088417;27;20468;-90
2022/03/15 09:35:51;;;;;;;14.13;9.50;;;11.10;54.00;;;;;;5098760;27;20495;-92
2022/03/15 09:38:20;;;;;;;16.20;9.03;;;11.30;54.00;;;;;;5117072;27;20450;-90
2022/03/15 09:40:50;;;;;;;10.03;7.80;;;11.30;53.50;;;;;;5106367;27;20437;-89
2022/03/15 09:43:21;;;;;;;11.37;8.27;;;11.20;53.80;;;;;;5133332;27;20466;-90
2022/03/15 09:45:50;;;;;;;31.23;8.37;;;11.20;53.80;;;;;;5104381;27;20464;-89
2022/03/15 09:48:20;;;;;;;11.87;8.77;;;11.30;53.90;;;;;;5111031;27;20465;-89
2022/03/15 09:50:49;;;;;;;13.83;9.90;;;11.40;53.70;;;;;;5097033;27;20459;-91
2022/03/15 09:53:17;;;;;;;16.53;9.03;;;11.40;53.90;;;;;;5112993;28;20922;-91
2022/03/15 09:55:46;;;;;;;17.27;9.60;;;11.40;53.70;;;;;;5116732;27;21015;-89
2022/03/15 09:58:13;;;;;;;12.60;9.77;;;11.50;53.60;;;;;;5099169;27;20438;-90
2022/03/15 10:00:41;;;;;;;14.43;8.50;;;11.80;53.50;;;;;;5117358;27;20464;-89
2022/03/15 10:03:09;;;;;;;25.27;10.53;;;12.00;53.50;;;;;;5105544;27;20830;-92
2022/03/15 10:05:37;;;;;;;19.43;15.87;;;12.00;52.90;;;;;;5103567;27;20460;-91
2022/03/15 10:08:06;;;;;;;13.87;9.00;;;12.20;52.80;;;;;;5119998;27;20552;-88
2022/03/15 10:10:33;;;;;;;22.70;10.67;;;12.20;52.40;;;;;;5118248;27;20456;-90
2022/03/15 10:13:02;;;;;;;17.00;10.33;;;12.20;52.60;;;;;;5107606;27;20465;-89
2022/03/15 10:15:29;;;;;;;13.60;8.10;;;12.10;52.70;;;;;;5107756;27;20453;-92
2022/03/15 10:18:04;;;;;;;14.07;9.30;;;12.10;52.60;;;;;;5128210;27;21095;-91
2022/03/15 10:20:41;;;;;;;17.17;9.30;;;12.20;52.70;;;;;;5109813;27;20458;-91
2022/03/15 10:23:09;;;;;;;12.83;9.17;;;12.30;52.70;;;;;;5118023;27;20464;-91
2022/03/15 10:25:37;;;;;;;16.47;8.50;;;12.40;52.30;;;;;;5107556;27;20446;-93
2022/03/15 10:28:06;;;;;;;14.00;8.80;;;12.50;52.50;;;;;;5100077;27;20477;-90
2022/03/15 10:30:34;;;;;;;12.10;8.83;;;12.60;52.20;;;;;;5119920;27;20806;-90
2022/03/15 10:33:01;;;;;;;16.63;8.90;;;12.70;52.50;;;;;;5094165;27;20493;-91
2022/03/15 10:35:31;;;;;;;15.83;8.10;;;12.70;52.80;;;;;;5092148;27;20445;-90
2022/03/15 10:37:59;;;;;;;12.50;7.87;;;12.70;52.20;;;;;;5104327;27;20441;-91
2022/03/15 10:40:34;;;;;;;15.00;9.67;;;12.80;51.80;;;;;;5091079;27;20454;-91
2022/03/15 10:43:06;;;;;;;16.50;8.60;;;12.90;51.70;;;;;;5118513;27;20461;-91
2022/03/15 10:45:35;;;;;;;10.90;8.80;;;12.90;51.80;;;;;;5104025;27;20448;-90
2022/03/15 10:48:13;;;;;;;12.70;7.67;;;12.90;52.00;;;;;;5086462;27;20484;-92
2022/03/15 10:50:55;;;;;;;10.80;7.57;;;13.00;51.70;;;;;;5089453;27;20472;-91
2022/03/15 10:53:28;;;;;;;17.53;10.67;;;13.00;52.30;;;;;;5091113;27;21003;-89
2022/03/15 10:56:15;;;;;;;13.90;8.27;;;13.00;51.70;;;;;;5102626;27;20448;-90
2022/03/15 10:58:47;;;;;;;11.83;7.90;;;13.10;51.70;;;;;;5104656;27;20439;-89
2022/03/15 11:01:17;;;;;;;10.73;7.00;;;13.10;51.70;;;;;;5099388;27;20450;-90
2022/03/15 11:03:53;;;;;;;13.77;8.00;;;13.00;51.50;;;;;;5113998;27;20466;-90
2022/03/15 11:06:30;;;;;;;11.20;7.43;;;13.10;51.40;;;;;;5142587;27;20450;-91
2022/03/15 11:08:59;;;;;;;11.43;7.10;;;13.20;51.40;;;;;;5112073;27;21142;-90
2022/03/15 11:11:27;;;;;;;10.00;7.10;;;13.20;51.40;;;;;;5100350;27;20512;-93
2022/03/15 11:14:00;;;;;;;12.20;8.10;;;13.30;51.50;;;;;;5121964;27;20722;-93
2022/03/15 11:16:30;;;;;;;10.97;7.57;;;13.30;51.30;;;;;;5138112;27;20557;-91
2022/03/15 11:19:00;;;;;;;14.77;7.23;;;13.30;51.20;;;;;;5108886;27;20536;-90
2022/03/15 11:21:28;;;;;;;9.90;7.40;;;13.20;51.20;;;;;;5109005;27;20955;-89
2022/03/15 11:24:00;;;;;;;11.23;7.50;;;13.30;51.40;;;;;;5105004;27;20500;-90
2022/03/15 11:26:31;;;;;;;11.63;7.73;;;13.40;51.20;;;;;;5107649;27;20441;-90
2022/03/15 11:28:59;;;;;;;9.37;7.00;;;13.40;50.80;;;;;;5139626;27;20545;-90
2022/03/15 11:31:26;;;;;;;12.97;6.90;;;13.40;50.50;;;;;;5092201;27;20450;-90
2022/03/15 11:33:55;;;;;;;11.93;7.80;;;13.60;50.70;;;;;;5106094;27;20460;-92
2022/03/15 11:36:25;;;;;;;11.73;7.13;;;13.60;50.40;;;;;;5139713;27;20810;-90
2022/03/15 11:38:52;;;;;;;10.90;6.63;;;13.70;49.90;;;;;;5085868;27;20495;-92
2022/03/15 11:41:22;;;;;;;11.57;6.63;;;13.60;49.80;;;;;;5104669;27;21130;-90
2022/03/15 11:44:00;;;;;;;9.03;6.50;;;13.70;49.70;;;;;;5104787;27;20473;-90
2022/03/15 11:46:30;;;;;;;11.33;6.90;;;13.70;49.60;;;;;;5098497;27;20441;-91
2022/03/15 11:49:14;;;;;;;14.30;8.00;;;13.70;49.90;;;;;;5123937;27;20468;-91
2022/03/15 11:51:48;;;;;;;11.67;7.23;;;13.80;49.60;;;;;;5112182;27;20469;-91
2022/03/15 11:54:26;;;;;;;9.73;6.40;;;13.80;49.20;;;;;;5091596;27;20466;-92
2022/03/15 11:56:58;;;;;;;11.93;7.97;;;13.60;49.60;;;;;;5138418;27;20471;-93
2022/03/15 11:59:25;;;;;;;10.47;7.80;;;13.70;49.60;;;;;;5102012;27;20445;-92
2022/03/15 12:01:55;;;;;;;9.97;7.20;;;13.80;49.60;;;;;;5100660;27;20475;-93
2022/03/15 12:04:24;;;;;;;9.47;6.83;;;13.70;49.50;;;;;;5107530;27;20438;-93
2022/03/15 12:06:54;;;;;;;11.60;6.43;;;13.80;49.50;;;;;;5104749;27;20431;-92
2022/03/15 12:09:23;;;;;;;10.47;7.03;;;13.90;49.50;;;;;;5093000;27;20948;-93
2022/03/15 12:12:04;;;;;;;11.93;7.37;;;14.00;49.40;;;;;;5108177;27;21078;-92
2022/03/15 12:14:38;;;;;;;11.70;7.33;;;14.20;49.10;;;;;;5091062;27;20547;-89
2022/03/15 12:17:06;;;;;;;9.57;6.53;;;14.30;49.00;;;;;;5107310;27;20449;-93
2022/03/15 12:19:45;;;;;;;9.10;6.73;;;14.40;48.70;;;;;;5118356;27;20445;-92
2022/03/15 12:22:24;;;;;;;14.93;8.23;;;14.30;48.70;;;;;;5118011;27;20430;-93
2022/03/15 12:25:03;;;;;;;10.47;6.70;;;14.20;48.50;;;;;;5105357;27;20457;-92
2022/03/15 12:27:40;;;;;;;12.93;7.87;;;14.20;48.90;;;;;;5108336;27;20544;-93
2022/03/15 12:30:09;;;;;;;12.10;7.40;;;14.10;48.60;;;;;;5105490;27;20421;-93
2022/03/15 12:32:36;;;;;;;13.07;6.73;;;14.10;48.90;;;;;;5092716;27;20950;-93
2022/03/15 12:35:08;;;;;;;13.67;8.00;;;14.10;48.80;;;;;;5108386;27;20445;-93
2022/03/15 12:37:37;;;;;;;13.10;7.37;;;14.00;49.50;;;;;;5121895;27;20775;-93
2022/03/15 12:40:06;;;;;;;9.20;6.97;;;13.90;49.50;;;;;;5118920;27;20473;-94
2022/03/15 12:42:35;;;;;;;11.97;7.63;;;13.80;49.70;;;;;;5084895;27;20465;-90
2022/03/15 12:45:06;;;;;;;11.80;8.03;;;13.80;50.30;;;;;;5105312;27;20897;-91
2022/03/15 12:47:39;;;;;;;17.13;8.17;;;13.80;50.70;;;;;;5109924;27;20944;-91
2022/03/15 12:50:08;;;;;;;12.87;8.30;;;13.90;52.10;;;;;;5115068;27;20449;-91
2022/03/15 12:52:40;;;;;;;18.43;9.90;;;13.90;51.90;;;;;;5079729;27;20813;-91